sensor_id;sensor_type;location;lat;lon;timestamp;temperature;humidity
45008;DHT22;30743;52.008;5.644;2022-11-12T00:00:43;12.50;99.90
45008;DHT22;30743;52.008;5.644;2022-11-12T00:03:09;12.40;99.90
45008;DHT22;30743;52.008;5.644;2022-11-12T00:05:34;12.40;99.90
45008;DHT22;30743;52.008;5.644;2022-11-12T00:08:00;12.30;99.90
45008;DHT22;30743;52.008;5.644;2022-11-12T00:10:26;12.30;99.90
45008;DHT22;30743;52.008;5.644;2022-11-12T00:12:51;12.30;99.90
45008;DHT22;30743;52.008;5.644;2022-11-12T00:15:17;12.20;99.90
45008;DHT22;30743;52.008;5.644;2022-11-12T00:17:43;12.20;99.90
45008;DHT22;30743;52.008;5.644;2022-11-12T00:20:09;12.20;99.90
45008;DHT22;30743;52.008;5.644;2022-11-12T00:22:35;12.20;99.90
45008;DHT22;30743;52.008;5.644;2022-11-12T00:25:01;12.10;99.90
45008;DHT22;30743;52.008;5.644;2022-11-12T00:27:26;12.10;99.90
45008;DHT22;30743;52.008;5.644;2022-11-12T00:29:52;12.10;99.90
45008;DHT22;30743;52.008;5.644;2022-11-12T00:32:17;12.00;99.90
45008;DHT22;30743;52.008;5.644;2022-11-12T00:34:44;12.00;99.90
45008;DHT22;30743;52.008;5.644;2022-11-12T00:37:10;12.10;99.90
45008;DHT22;30743;52.008;5.644;2022-11-12T00:39:35;12.10;99.90
45008;DHT22;30743;52.008;5.644;2022-11-12T00:42:01;12.10;99.90
45008;DHT22;30743;52.008;5.644;2022-11-12T00:44:26;12.10;99.90
45008;DHT22;30743;52.008;5.644;2022-11-12T00:46:54;12.00;99.90
45008;DHT22;30743;52.008;5.644;2022-11-12T00:49:19;12.00;99.90
45008;DHT22;30743;52.008;5.644;2022-11-12T00:51:45;12.00;99.90
45008;DHT22;30743;52.008;5.644;2022-11-12T00:54:10;11.90;99.90
45008;DHT22;30743;52.008;5.644;2022-11-12T00:56:36;11.90;99.90
45008;DHT22;30743;52.008;5.644;2022-11-12T00:59:01;11.90;99.90
45008;DHT22;30743;52.008;5.644;2022-11-12T01:01:27;11.90;99.90
45008;DHT22;30743;52.008;5.644;2022-11-12T01:03:53;11.90;99.90
45008;DHT22;30743;52.008;5.644;2022-11-12T01:06:20;11.90;99.90
45008;DHT22;30743;52.008;5.644;2022-11-12T01:08:47;11.90;99.90
45008;DHT22;30743;52.008;5.644;2022-11-12T01:11:16;11.90;99.90
45008;DHT22;30743;52.008;5.644;2022-11-12T01:13:44;11.90;99.90
45008;DHT22;30743;52.008;5.644;2022-11-12T01:16:16;11.80;99.90
45008;DHT22;30743;52.008;5.644;2022-11-12T01:18:42;11.80;99.90
45008;DHT22;30743;52.008;5.644;2022-11-12T01:21:08;11.80;99.90
45008;DHT22;30743;52.008;5.644;2022-11-12T01:23:36;11.80;99.90
45008;DHT22;30743;52.008;5.644;2022-11-12T01:26:11;11.80;99.90
45008;DHT22;30743;52.008;5.644;2022-11-12T01:28:37;11.70;99.90
45008;DHT22;30743;52.008;5.644;2022-11-12T01:31:16;11.70;99.90
45008;DHT22;30743;52.008;5.644;2022-11-12T01:33:44;11.60;99.90
45008;DHT22;30743;52.008;5.644;2022-11-12T01:36:12;11.60;99.90
45008;DHT22;30743;52.008;5.644;2022-11-12T01:38:39;11.50;99.90
45008;DHT22;30743;52.008;5.644;2022-11-12T01:41:06;11.50;99.90
45008;DHT22;30743;52.008;5.644;2022-11-12T01:43:32;11.40;99.90
45008;DHT22;30743;52.008;5.644;2022-11-12T01:46:00;11.40;99.90
45008;DHT22;30743;52.008;5.644;2022-11-12T01:48:37;11.30;99.90
45008;DHT22;30743;52.008;5.644;2022-11-12T01:51:04;11.30;99.90
45008;DHT22;30743;52.008;5.644;2022-11-12T01:53:34;11.40;99.90
45008;DHT22;30743;52.008;5.644;2022-11-12T01:56:00;11.40;99.90
45008;DHT22;30743;52.008;5.644;2022-11-12T01:58:28;11.50;99.90
45008;DHT22;30743;52.008;5.644;2022-11-12T02:00:56;11.50;99.90
45008;DHT22;30743;52.008;5.644;2022-11-12T02:03:23;11.50;99.90
45008;DHT22;30743;52.008;5.644;2022-11-12T02:05:54;11.50;99.90
45008;DHT22;30743;52.008;5.644;2022-11-12T02:08:21;11.40;99.90
45008;DHT22;30743;52.008;5.644;2022-11-12T02:10:48;11.40;99.90
45008;DHT22;30743;52.008;5.644;2022-11-12T02:13:14;11.40;99.90
45008;DHT22;30743;52.008;5.644;2022-11-12T02:15:58;11.40;99.90
45008;DHT22;30743;52.008;5.644;2022-11-12T02:18:24;11.40;99.90
45008;DHT22;30743;52.008;5.644;2022-11-12T02:20:58;11.40;99.90
45008;DHT22;30743;52.008;5.644;2022-11-12T02:23:27;11.40;99.90
45008;DHT22;30743;52.008;5.644;2022-11-12T02:25:53;11.30;99.90
45008;DHT22;30743;52.008;5.644;2022-11-12T02:28:19;11.30;99.90
45008;DHT22;30743;52.008;5.644;2022-11-12T02:30:46;11.30;99.90
45008;DHT22;30743;52.008;5.644;2022-11-12T02:33:13;11.30;99.90
45008;DHT22;30743;52.008;5.644;2022-11-12T02:35:39;11.20;99.90
45008;DHT22;30743;52.008;5.644;2022-11-12T02:38:05;11.30;99.90
45008;DHT22;30743;52.008;5.644;2022-11-12T02:40:31;11.20;99.90
45008;DHT22;30743;52.008;5.644;2022-11-12T02:42:57;11.20;99.90
45008;DHT22;30743;52.008;5.644;2022-11-12T02:45:23;11.20;99.90
45008;DHT22;30743;52.008;5.644;2022-11-12T02:47:49;11.20;99.90
45008;DHT22;30743;52.008;5.644;2022-11-12T02:50:14;11.20;99.90
45008;DHT22;30743;52.008;5.644;2022-11-12T02:52:40;11.10;99.90
45008;DHT22;30743;52.008;5.644;2022-11-12T02:55:07;11.00;99.90
45008;DHT22;30743;52.008;5.644;2022-11-12T02:57:33;11.00;99.90
45008;DHT22;30743;52.008;5.644;2022-11-12T02:59:58;11.00;99.90
45008;DHT22;30743;52.008;5.644;2022-11-12T03:02:24;11.10;99.90
45008;DHT22;30743;52.008;5.644;2022-11-12T03:04:49;11.00;99.90
45008;DHT22;30743;52.008;5.644;2022-11-12T03:07:15;10.80;99.90
45008;DHT22;30743;52.008;5.644;2022-11-12T03:09:40;10.80;99.90
45008;DHT22;30743;52.008;5.644;2022-11-12T03:12:06;10.80;99.90
45008;DHT22;30743;52.008;5.644;2022-11-12T03:14:31;10.90;99.90
45008;DHT22;30743;52.008;5.644;2022-11-12T03:16:57;11.00;99.90
45008;DHT22;30743;52.008;5.644;2022-11-12T03:19:22;11.00;99.90
45008;DHT22;30743;52.008;5.644;2022-11-12T03:21:48;11.10;99.90
45008;DHT22;30743;52.008;5.644;2022-11-12T03:24:13;11.10;99.90
45008;DHT22;30743;52.008;5.644;2022-11-12T03:26:39;11.10;99.90
45008;DHT22;30743;52.008;5.644;2022-11-12T03:29:04;11.00;99.90
45008;DHT22;30743;52.008;5.644;2022-11-12T03:31:30;11.10;99.90
45008;DHT22;30743;52.008;5.644;2022-11-12T03:33:55;11.20;99.90
45008;DHT22;30743;52.008;5.644;2022-11-12T03:36:21;11.20;99.90
45008;DHT22;30743;52.008;5.644;2022-11-12T03:38:46;11.20;99.90
45008;DHT22;30743;52.008;5.644;2022-11-12T03:41:11;11.20;99.90
45008;DHT22;30743;52.008;5.644;2022-11-12T03:43:37;11.20;99.90
45008;DHT22;30743;52.008;5.644;2022-11-12T03:46:03;11.20;99.90
45008;DHT22;30743;52.008;5.644;2022-11-12T03:48:28;11.20;99.90
45008;DHT22;30743;52.008;5.644;2022-11-12T03:50:58;11.20;99.90
45008;DHT22;30743;52.008;5.644;2022-11-12T03:53:24;11.20;99.90
45008;DHT22;30743;52.008;5.644;2022-11-12T03:55:49;11.10;99.90
45008;DHT22;30743;52.008;5.644;2022-11-12T03:58:15;11.10;99.90
45008;DHT22;30743;52.008;5.644;2022-11-12T04:00:40;11.10;99.90
45008;DHT22;30743;52.008;5.644;2022-11-12T04:03:06;11.20;99.90
45008;DHT22;30743;52.008;5.644;2022-11-12T04:05:31;11.20;99.90
45008;DHT22;30743;52.008;5.644;2022-11-12T04:08:18;11.10;99.90
45008;DHT22;30743;52.008;5.644;2022-11-12T04:11:04;11.10;99.90
45008;DHT22;30743;52.008;5.644;2022-11-12T04:13:30;11.10;99.90
45008;DHT22;30743;52.008;5.644;2022-11-12T04:16:02;11.10;99.90
45008;DHT22;30743;52.008;5.644;2022-11-12T04:18:49;11.10;99.90
45008;DHT22;30743;52.008;5.644;2022-11-12T04:21:40;11.20;99.90
45008;DHT22;30743;52.008;5.644;2022-11-12T04:24:29;11.20;99.90
45008;DHT22;30743;52.008;5.644;2022-11-12T04:27:20;11.20;99.90
45008;DHT22;30743;52.008;5.644;2022-11-12T04:29:47;11.10;99.90
45008;DHT22;30743;52.008;5.644;2022-11-12T04:32:35;11.10;99.90
45008;DHT22;30743;52.008;5.644;2022-11-12T04:35:02;11.00;99.90
45008;DHT22;30743;52.008;5.644;2022-11-12T04:37:30;11.00;99.90
45008;DHT22;30743;52.008;5.644;2022-11-12T04:40:13;11.00;99.90
45008;DHT22;30743;52.008;5.644;2022-11-12T04:42:57;11.00;99.90
45008;DHT22;30743;52.008;5.644;2022-11-12T04:45:43;11.00;99.90
45008;DHT22;30743;52.008;5.644;2022-11-12T04:48:09;11.00;99.90
45008;DHT22;30743;52.008;5.644;2022-11-12T04:50:35;11.00;99.90
45008;DHT22;30743;52.008;5.644;2022-11-12T04:53:01;11.00;99.90
45008;DHT22;30743;52.008;5.644;2022-11-12T04:55:26;11.00;99.90
45008;DHT22;30743;52.008;5.644;2022-11-12T04:57:52;11.00;99.90
45008;DHT22;30743;52.008;5.644;2022-11-12T05:00:17;11.00;99.90
45008;DHT22;30743;52.008;5.644;2022-11-12T05:02:43;10.90;99.90
45008;DHT22;30743;52.008;5.644;2022-11-12T05:05:08;10.90;99.90
45008;DHT22;30743;52.008;5.644;2022-11-12T05:07:34;10.90;99.90
45008;DHT22;30743;52.008;5.644;2022-11-12T05:09:59;10.90;99.90
45008;DHT22;30743;52.008;5.644;2022-11-12T05:12:25;10.90;99.90
45008;DHT22;30743;52.008;5.644;2022-11-12T05:14:50;10.80;99.90
45008;DHT22;30743;52.008;5.644;2022-11-12T05:17:16;10.90;99.90
45008;DHT22;30743;52.008;5.644;2022-11-12T05:19:41;10.90;99.90
45008;DHT22;30743;52.008;5.644;2022-11-12T05:22:09;10.90;99.90
45008;DHT22;30743;52.008;5.644;2022-11-12T05:24:40;10.90;99.90
45008;DHT22;30743;52.008;5.644;2022-11-12T05:27:14;10.90;99.90
45008;DHT22;30743;52.008;5.644;2022-11-12T05:29:40;10.90;99.90
45008;DHT22;30743;52.008;5.644;2022-11-12T05:32:08;10.90;99.90
45008;DHT22;30743;52.008;5.644;2022-11-12T05:34:35;10.90;99.90
45008;DHT22;30743;52.008;5.644;2022-11-12T05:37:01;10.80;99.90
45008;DHT22;30743;52.008;5.644;2022-11-12T05:39:27;10.90;99.90
45008;DHT22;30743;52.008;5.644;2022-11-12T05:41:53;10.90;99.90
45008;DHT22;30743;52.008;5.644;2022-11-12T05:44:18;10.90;99.90
45008;DHT22;30743;52.008;5.644;2022-11-12T05:46:44;10.90;99.90
45008;DHT22;30743;52.008;5.644;2022-11-12T05:49:10;10.80;99.90
45008;DHT22;30743;52.008;5.644;2022-11-12T05:51:36;10.80;99.90
45008;DHT22;30743;52.008;5.644;2022-11-12T05:54:01;10.80;99.90
45008;DHT22;30743;52.008;5.644;2022-11-12T05:56:27;10.80;99.90
45008;DHT22;30743;52.008;5.644;2022-11-12T05:58:52;10.80;99.90
45008;DHT22;30743;52.008;5.644;2022-11-12T06:01:18;10.80;99.90
45008;DHT22;30743;52.008;5.644;2022-11-12T06:03:43;10.80;99.90
45008;DHT22;30743;52.008;5.644;2022-11-12T06:06:09;10.80;99.90
45008;DHT22;30743;52.008;5.644;2022-11-12T06:08:35;10.80;99.90
45008;DHT22;30743;52.008;5.644;2022-11-12T06:11:00;10.80;99.90
45008;DHT22;30743;52.008;5.644;2022-11-12T06:13:26;10.90;99.90
45008;DHT22;30743;52.008;5.644;2022-11-12T06:15:53;11.00;99.90
45008;DHT22;30743;52.008;5.644;2022-11-12T06:18:19;11.00;99.90
45008;DHT22;30743;52.008;5.644;2022-11-12T06:20:44;11.00;99.90
45008;DHT22;30743;52.008;5.644;2022-11-12T06:23:10;11.00;99.90
45008;DHT22;30743;52.008;5.644;2022-11-12T06:25:35;11.00;99.90
45008;DHT22;30743;52.008;5.644;2022-11-12T06:28:01;10.90;99.90
45008;DHT22;30743;52.008;5.644;2022-11-12T06:30:26;10.90;99.90
45008;DHT22;30743;52.008;5.644;2022-11-12T06:32:52;11.00;99.90
45008;DHT22;30743;52.008;5.644;2022-11-12T06:35:18;11.00;99.90
45008;DHT22;30743;52.008;5.644;2022-11-12T06:37:47;11.00;99.90
45008;DHT22;30743;52.008;5.644;2022-11-12T06:40:13;10.90;99.90
45008;DHT22;30743;52.008;5.644;2022-11-12T06:42:39;10.90;99.90
45008;DHT22;30743;52.008;5.644;2022-11-12T06:45:05;10.80;99.90
45008;DHT22;30743;52.008;5.644;2022-11-12T06:47:30;10.90;99.90
45008;DHT22;30743;52.008;5.644;2022-11-12T06:49:56;10.90;99.90
45008;DHT22;30743;52.008;5.644;2022-11-12T06:52:21;10.80;99.90
45008;DHT22;30743;52.008;5.644;2022-11-12T06:54:47;10.90;99.90
45008;DHT22;30743;52.008;5.644;2022-11-12T06:57:12;10.90;99.90
45008;DHT22;30743;52.008;5.644;2022-11-12T06:59:38;10.90;99.90
45008;DHT22;30743;52.008;5.644;2022-11-12T07:02:03;10.90;99.90
45008;DHT22;30743;52.008;5.644;2022-11-12T07:04:29;10.90;99.90
45008;DHT22;30743;52.008;5.644;2022-11-12T07:06:55;10.90;99.90
45008;DHT22;30743;52.008;5.644;2022-11-12T07:09:20;10.90;99.90
45008;DHT22;30743;52.008;5.644;2022-11-12T07:11:46;10.90;99.90
45008;DHT22;30743;52.008;5.644;2022-11-12T07:14:11;11.00;99.90
45008;DHT22;30743;52.008;5.644;2022-11-12T07:16:37;11.10;99.90
45008;DHT22;30743;52.008;5.644;2022-11-12T07:19:03;11.40;99.90
45008;DHT22;30743;52.008;5.644;2022-11-12T07:21:28;11.70;99.90
45008;DHT22;30743;52.008;5.644;2022-11-12T07:23:53;12.10;99.90
45008;DHT22;30743;52.008;5.644;2022-11-12T07:26:24;12.40;99.90
45008;DHT22;30743;52.008;5.644;2022-11-12T07:28:52;12.60;99.90
45008;DHT22;30743;52.008;5.644;2022-11-12T07:31:20;12.80;99.90
45008;DHT22;30743;52.008;5.644;2022-11-12T07:33:46;12.80;99.90
45008;DHT22;30743;52.008;5.644;2022-11-12T07:36:17;12.90;99.90
45008;DHT22;30743;52.008;5.644;2022-11-12T07:38:44;12.90;99.90
45008;DHT22;30743;52.008;5.644;2022-11-12T07:41:12;12.90;99.90
45008;DHT22;30743;52.008;5.644;2022-11-12T07:43:39;13.00;99.90
45008;DHT22;30743;52.008;5.644;2022-11-12T07:46:08;13.00;99.90
45008;DHT22;30743;52.008;5.644;2022-11-12T07:48:34;13.00;99.90
45008;DHT22;30743;52.008;5.644;2022-11-12T07:51:11;13.20;99.90
45008;DHT22;30743;52.008;5.644;2022-11-12T07:53:38;13.60;99.90
45008;DHT22;30743;52.008;5.644;2022-11-12T07:56:04;14.00;99.90
45008;DHT22;30743;52.008;5.644;2022-11-12T07:58:31;14.50;99.90
45008;DHT22;30743;52.008;5.644;2022-11-12T08:00:57;14.50;99.90
45008;DHT22;30743;52.008;5.644;2022-11-12T08:03:30;14.60;99.90
45008;DHT22;30743;52.008;5.644;2022-11-12T08:05:58;14.40;99.90
45008;DHT22;30743;52.008;5.644;2022-11-12T08:08:24;14.40;99.90
45008;DHT22;30743;52.008;5.644;2022-11-12T08:10:53;14.30;99.90
45008;DHT22;30743;52.008;5.644;2022-11-12T08:13:19;14.10;99.90
45008;DHT22;30743;52.008;5.644;2022-11-12T08:15:45;14.10;99.90
45008;DHT22;30743;52.008;5.644;2022-11-12T08:18:10;14.00;99.90
45008;DHT22;30743;52.008;5.644;2022-11-12T08:20:35;13.80;99.90
45008;DHT22;30743;52.008;5.644;2022-11-12T08:23:01;13.90;99.90
45008;DHT22;30743;52.008;5.644;2022-11-12T08:25:26;13.90;99.90
45008;DHT22;30743;52.008;5.644;2022-11-12T08:27:55;13.70;99.90
45008;DHT22;30743;52.008;5.644;2022-11-12T08:30:21;13.70;99.90
45008;DHT22;30743;52.008;5.644;2022-11-12T08:32:46;13.60;99.90
45008;DHT22;30743;52.008;5.644;2022-11-12T08:35:12;13.60;99.90
45008;DHT22;30743;52.008;5.644;2022-11-12T08:37:37;13.90;99.90
45008;DHT22;30743;52.008;5.644;2022-11-12T08:40:03;14.00;99.90
45008;DHT22;30743;52.008;5.644;2022-11-12T08:42:29;14.30;99.90
45008;DHT22;30743;52.008;5.644;2022-11-12T08:44:54;14.70;99.90
45008;DHT22;30743;52.008;5.644;2022-11-12T08:47:20;14.90;99.90
45008;DHT22;30743;52.008;5.644;2022-11-12T08:49:45;15.00;99.90
45008;DHT22;30743;52.008;5.644;2022-11-12T08:52:10;15.00;99.90
45008;DHT22;30743;52.008;5.644;2022-11-12T08:54:36;15.00;99.90
45008;DHT22;30743;52.008;5.644;2022-11-12T08:57:01;15.60;99.90
45008;DHT22;30743;52.008;5.644;2022-11-12T08:59:27;16.50;99.90
45008;DHT22;30743;52.008;5.644;2022-11-12T09:01:52;17.60;99.90
45008;DHT22;30743;52.008;5.644;2022-11-12T09:04:18;18.60;99.90
45008;DHT22;30743;52.008;5.644;2022-11-12T09:06:44;19.30;99.90
45008;DHT22;30743;52.008;5.644;2022-11-12T09:09:09;20.10;99.90
45008;DHT22;30743;52.008;5.644;2022-11-12T09:11:35;20.90;99.90
45008;DHT22;30743;52.008;5.644;2022-11-12T09:14:00;21.70;99.90
45008;DHT22;30743;52.008;5.644;2022-11-12T09:16:26;22.40;99.50
45008;DHT22;30743;52.008;5.644;2022-11-12T09:18:51;23.00;99.10
45008;DHT22;30743;52.008;5.644;2022-11-12T09:21:17;23.50;97.40
45008;DHT22;30743;52.008;5.644;2022-11-12T09:23:43;23.80;95.80
45008;DHT22;30743;52.008;5.644;2022-11-12T09:26:09;24.00;96.00
45008;DHT22;30743;52.008;5.644;2022-11-12T09:28:34;24.40;96.30
45008;DHT22;30743;52.008;5.644;2022-11-12T09:31:01;24.80;95.40
45008;DHT22;30743;52.008;5.644;2022-11-12T09:33:29;25.00;94.30
45008;DHT22;30743;52.008;5.644;2022-11-12T09:35:55;25.20;94.00
45008;DHT22;30743;52.008;5.644;2022-11-12T09:38:21;25.70;93.30
45008;DHT22;30743;52.008;5.644;2022-11-12T09:41:13;25.80;93.10
45008;DHT22;30743;52.008;5.644;2022-11-12T09:48:48;26.40;92.40
45008;DHT22;30743;52.008;5.644;2022-11-12T09:51:24;26.80;91.80
45008;DHT22;30743;52.008;5.644;2022-11-12T09:53:57;27.20;91.80
45008;DHT22;30743;52.008;5.644;2022-11-12T09:56:24;27.50;91.70
45008;DHT22;30743;52.008;5.644;2022-11-12T09:58:51;27.70;90.80
45008;DHT22;30743;52.008;5.644;2022-11-12T10:01:40;27.90;90.00
45008;DHT22;30743;52.008;5.644;2022-11-12T10:07:12;28.80;88.20
45008;DHT22;30743;52.008;5.644;2022-11-12T10:09:58;29.60;86.70
45008;DHT22;30743;52.008;5.644;2022-11-12T10:18:04;30.10;85.20
45008;DHT22;30743;52.008;5.644;2022-11-12T10:23:35;30.00;84.70
45008;DHT22;30743;52.008;5.644;2022-11-12T10:26:11;30.00;83.30
45008;DHT22;30743;52.008;5.644;2022-11-12T10:28:46;30.10;82.20
45008;DHT22;30743;52.008;5.644;2022-11-12T10:31:18;30.00;81.40
45008;DHT22;30743;52.008;5.644;2022-11-12T10:33:44;30.30;83.90
45008;DHT22;30743;52.008;5.644;2022-11-12T10:36:27;30.30;82.60
45008;DHT22;30743;52.008;5.644;2022-11-12T10:38:54;30.80;80.90
45008;DHT22;30743;52.008;5.644;2022-11-12T10:41:28;31.20;80.20
45008;DHT22;30743;52.008;5.644;2022-11-12T10:44:02;31.30;80.50
45008;DHT22;30743;52.008;5.644;2022-11-12T10:46:35;32.00;79.50
45008;DHT22;30743;52.008;5.644;2022-11-12T10:49:04;32.40;77.30
45008;DHT22;30743;52.008;5.644;2022-11-12T10:51:36;33.10;76.80
45008;DHT22;30743;52.008;5.644;2022-11-12T10:56:50;34.50;75.70
45008;DHT22;30743;52.008;5.644;2022-11-12T10:59:20;35.10;73.50
45008;DHT22;30743;52.008;5.644;2022-11-12T11:01:56;35.70;72.80
45008;DHT22;30743;52.008;5.644;2022-11-12T11:04:33;36.20;70.10
45008;DHT22;30743;52.008;5.644;2022-11-12T11:07:04;36.70;68.70
45008;DHT22;30743;52.008;5.644;2022-11-12T11:09:31;36.70;68.70
45008;DHT22;30743;52.008;5.644;2022-11-12T11:11:56;37.00;68.70
45008;DHT22;30743;52.008;5.644;2022-11-12T11:14:23;36.90;66.00
45008;DHT22;30743;52.008;5.644;2022-11-12T11:16:52;37.00;65.50
45008;DHT22;30743;52.008;5.644;2022-11-12T11:19:18;36.90;64.00
45008;DHT22;30743;52.008;5.644;2022-11-12T11:29:31;37.50;63.60
45008;DHT22;30743;52.008;5.644;2022-11-12T11:35:00;37.60;61.60
45008;DHT22;30743;52.008;5.644;2022-11-12T11:37:31;37.30;63.00
45008;DHT22;30743;52.008;5.644;2022-11-12T11:42:48;37.20;62.10
45008;DHT22;30743;52.008;5.644;2022-11-12T11:45:24;37.20;61.00
45008;DHT22;30743;52.008;5.644;2022-11-12T11:53:26;38.10;61.90
45008;DHT22;30743;52.008;5.644;2022-11-12T11:56:02;38.40;60.00
45008;DHT22;30743;52.008;5.644;2022-11-12T11:58:57;38.90;60.40
45008;DHT22;30743;52.008;5.644;2022-11-12T12:01:41;39.20;59.10
45008;DHT22;30743;52.008;5.644;2022-11-12T12:04:49;39.40;58.10
45008;DHT22;30743;52.008;5.644;2022-11-12T12:16:09;40.30;57.30
45008;DHT22;30743;52.008;5.644;2022-11-12T12:21:14;40.80;55.20
45008;DHT22;30743;52.008;5.644;2022-11-12T12:23:42;41.20;55.30
45008;DHT22;30743;52.008;5.644;2022-11-12T12:26:17;41.40;54.40
45008;DHT22;30743;52.008;5.644;2022-11-12T12:28:46;41.80;53.80
45008;DHT22;30743;52.008;5.644;2022-11-12T12:31:17;42.20;53.50
45008;DHT22;30743;52.008;5.644;2022-11-12T12:33:52;42.60;52.80
45008;DHT22;30743;52.008;5.644;2022-11-12T12:36:39;43.00;52.30
45008;DHT22;30743;52.008;5.644;2022-11-12T12:39:21;43.30;52.10
45008;DHT22;30743;52.008;5.644;2022-11-12T12:41:55;43.50;51.70
45008;DHT22;30743;52.008;5.644;2022-11-12T12:44:22;43.50;50.80
45008;DHT22;30743;52.008;5.644;2022-11-12T12:47:10;43.50;49.90
45008;DHT22;30743;52.008;5.644;2022-11-12T12:49:38;43.60;50.20
45008;DHT22;30743;52.008;5.644;2022-11-12T12:52:04;43.60;49.90
45008;DHT22;30743;52.008;5.644;2022-11-12T12:57:37;43.40;49.30
45008;DHT22;30743;52.008;5.644;2022-11-12T13:00:37;43.10;49.80
45008;DHT22;30743;52.008;5.644;2022-11-12T13:03:04;43.00;49.70
45008;DHT22;30743;52.008;5.644;2022-11-12T13:05:36;42.80;49.60
45008;DHT22;30743;52.008;5.644;2022-11-12T13:08:22;42.90;49.90
45008;DHT22;30743;52.008;5.644;2022-11-12T13:10:49;42.80;49.80
45008;DHT22;30743;52.008;5.644;2022-11-12T13:15:51;42.70;49.80
45008;DHT22;30743;52.008;5.644;2022-11-12T13:23:48;42.70;49.80
45008;DHT22;30743;52.008;5.644;2022-11-12T13:26:43;42.80;50.10
45008;DHT22;30743;52.008;5.644;2022-11-12T13:29:24;42.70;48.90
45008;DHT22;30743;52.008;5.644;2022-11-12T13:34:50;42.20;48.20
45008;DHT22;30743;52.008;5.644;2022-11-12T13:37:19;41.50;48.90
45008;DHT22;30743;52.008;5.644;2022-11-12T13:39:47;40.90;48.70
45008;DHT22;30743;52.008;5.644;2022-11-12T13:42:16;40.30;49.00
45008;DHT22;30743;52.008;5.644;2022-11-12T13:45:01;39.70;50.00
45008;DHT22;30743;52.008;5.644;2022-11-12T13:47:27;39.10;51.00
45008;DHT22;30743;52.008;5.644;2022-11-12T13:49:55;38.50;50.20
45008;DHT22;30743;52.008;5.644;2022-11-12T13:52:24;37.90;51.30
45008;DHT22;30743;52.008;5.644;2022-11-12T13:55:05;37.10;52.00
45008;DHT22;30743;52.008;5.644;2022-11-12T13:57:32;36.60;53.80
45008;DHT22;30743;52.008;5.644;2022-11-12T14:00:26;36.50;54.80
45008;DHT22;30743;52.008;5.644;2022-11-12T14:03:07;36.70;54.30
45008;DHT22;30743;52.008;5.644;2022-11-12T14:05:33;36.80;53.90
45008;DHT22;30743;52.008;5.644;2022-11-12T14:08:21;37.20;53.20
45008;DHT22;30743;52.008;5.644;2022-11-12T14:16:27;37.80;52.50
45008;DHT22;30743;52.008;5.644;2022-11-12T14:19:07;37.70;52.60
45008;DHT22;30743;52.008;5.644;2022-11-12T14:21:37;37.70;52.50
45008;DHT22;30743;52.008;5.644;2022-11-12T14:24:03;37.70;53.00
45008;DHT22;30743;52.008;5.644;2022-11-12T14:26:40;37.70;53.80
45008;DHT22;30743;52.008;5.644;2022-11-12T14:29:06;37.70;53.70
45008;DHT22;30743;52.008;5.644;2022-11-12T14:31:38;38.00;53.80
45008;DHT22;30743;52.008;5.644;2022-11-12T14:34:20;37.70;53.00
45008;DHT22;30743;52.008;5.644;2022-11-12T14:36:47;37.50;53.10
45008;DHT22;30743;52.008;5.644;2022-11-12T14:39:13;37.30;54.10
45008;DHT22;30743;52.008;5.644;2022-11-12T14:41:40;36.80;54.70
45008;DHT22;30743;52.008;5.644;2022-11-12T14:44:17;36.40;54.50
45008;DHT22;30743;52.008;5.644;2022-11-12T14:46:51;36.20;54.70
45008;DHT22;30743;52.008;5.644;2022-11-12T14:49:38;36.00;55.30
45008;DHT22;30743;52.008;5.644;2022-11-12T14:52:22;35.70;55.30
45008;DHT22;30743;52.008;5.644;2022-11-12T14:54:55;34.30;56.20
45008;DHT22;30743;52.008;5.644;2022-11-12T14:57:25;33.70;56.90
45008;DHT22;30743;52.008;5.644;2022-11-12T14:59:51;32.50;57.70
45008;DHT22;30743;52.008;5.644;2022-11-12T15:05:19;30.60;60.50
45008;DHT22;30743;52.008;5.644;2022-11-12T15:07:57;29.50;61.50
45008;DHT22;30743;52.008;5.644;2022-11-12T15:13:20;27.50;65.40
45008;DHT22;30743;52.008;5.644;2022-11-12T15:15:55;26.80;66.90
45008;DHT22;30743;52.008;5.644;2022-11-12T15:18:23;26.40;67.60
45008;DHT22;30743;52.008;5.644;2022-11-12T15:21:11;26.10;68.60
45008;DHT22;30743;52.008;5.644;2022-11-12T15:24:25;25.60;69.80
45008;DHT22;30743;52.008;5.644;2022-11-12T15:26:45;25.00;71.00
45008;DHT22;30743;52.008;5.644;2022-11-12T15:29:32;24.50;72.60
45008;DHT22;30743;52.008;5.644;2022-11-12T15:39:54;23.20;75.50
45008;DHT22;30743;52.008;5.644;2022-11-12T15:42:37;22.90;76.80
45008;DHT22;30743;52.008;5.644;2022-11-12T15:45:24;22.80;76.90
45008;DHT22;30743;52.008;5.644;2022-11-12T15:47:49;22.70;77.30
45008;DHT22;30743;52.008;5.644;2022-11-12T15:50:17;22.50;78.40
45008;DHT22;30743;52.008;5.644;2022-11-12T15:52:44;22.30;78.60
45008;DHT22;30743;52.008;5.644;2022-11-12T15:55:13;22.20;79.00
45008;DHT22;30743;52.008;5.644;2022-11-12T15:57:43;22.00;79.70
45008;DHT22;30743;52.008;5.644;2022-11-12T16:00:15;21.80;80.10
45008;DHT22;30743;52.008;5.644;2022-11-12T16:02:42;21.60;80.60
45008;DHT22;30743;52.008;5.644;2022-11-12T16:05:12;21.30;81.70
45008;DHT22;30743;52.008;5.644;2022-11-12T16:07:38;21.10;82.00
45008;DHT22;30743;52.008;5.644;2022-11-12T16:10:04;20.70;83.60
45008;DHT22;30743;52.008;5.644;2022-11-12T16:12:29;20.40;84.50
45008;DHT22;30743;52.008;5.644;2022-11-12T16:14:55;20.20;85.00
45008;DHT22;30743;52.008;5.644;2022-11-12T16:17:20;20.10;85.60
45008;DHT22;30743;52.008;5.644;2022-11-12T16:19:46;19.90;87.40
45008;DHT22;30743;52.008;5.644;2022-11-12T16:22:12;19.70;87.50
45008;DHT22;30743;52.008;5.644;2022-11-12T16:24:39;19.80;87.60
45008;DHT22;30743;52.008;5.644;2022-11-12T16:27:04;19.80;87.70
45008;DHT22;30743;52.008;5.644;2022-11-12T16:29:33;19.80;88.20
45008;DHT22;30743;52.008;5.644;2022-11-12T16:31:59;19.70;88.40
45008;DHT22;30743;52.008;5.644;2022-11-12T16:34:25;19.70;88.80
45008;DHT22;30743;52.008;5.644;2022-11-12T16:36:50;19.50;89.40
45008;DHT22;30743;52.008;5.644;2022-11-12T16:39:16;19.40;89.00
45008;DHT22;30743;52.008;5.644;2022-11-12T16:41:41;19.30;89.70
45008;DHT22;30743;52.008;5.644;2022-11-12T16:44:07;19.20;89.60
45008;DHT22;30743;52.008;5.644;2022-11-12T16:46:37;19.20;90.20
45008;DHT22;30743;52.008;5.644;2022-11-12T16:49:05;19.10;90.10
45008;DHT22;30743;52.008;5.644;2022-11-12T16:51:30;19.00;90.30
45008;DHT22;30743;52.008;5.644;2022-11-12T16:53:56;18.90;90.60
45008;DHT22;30743;52.008;5.644;2022-11-12T16:56:22;18.80;90.80
45008;DHT22;30743;52.008;5.644;2022-11-12T16:58:48;18.70;91.10
45008;DHT22;30743;52.008;5.644;2022-11-12T17:01:28;18.50;91.60
45008;DHT22;30743;52.008;5.644;2022-11-12T17:03:55;18.50;91.80
45008;DHT22;30743;52.008;5.644;2022-11-12T17:06:23;18.40;92.10